Time;durP1;ratioP1;P1;durP2;ratioP2;P2;SDS_P1;SDS_P2;PMS_P1;PMS_P2;Temp;Humidity;BMP_temperature;BMP_pressure;BME280_temperature;BME280_humidity;BME280_pressure;Samples;Min_cycle;Max_cycle;Signal;HPM_P1;HPM_P2
2022/04/03 00:01:46;;;;;;;1.65;1.55;;;;;;;9.87;68.21;99120.00;5033192;28;20224;-80
2022/04/03 00:04:14;;;;;;;1.70;1.60;;;;;;;9.95;68.91;99123.47;5032928;28;20200;-80
2022/04/03 00:06:40;;;;;;;1.48;1.38;;;;;;;9.96;69.13;99122.59;5033043;28;20239;-79
2022/04/03 00:09:09;;;;;;;4.93;1.25;;;;;;;9.90;69.62;99115.69;5043390;28;20660;-79
2022/04/03 00:11:35;;;;;;;1.77;1.65;;;;;;;9.89;70.58;99121.72;5034578;28;20203;-79
2022/04/03 00:14:03;;;;;;;1.98;1.88;;;;;;;9.77;69.92;99103.59;5052655;28;20203;-80
2022/04/03 00:16:31;;;;;;;1.73;1.63;;;;;;;9.63;70.56;99099.22;5044587;28;20200;-79
2022/04/03 00:18:58;;;;;;;3.22;1.73;;;;;;;9.66;70.77;99105.28;5043094;28;20255;-80
2022/04/03 00:21:25;;;;;;;8.48;1.80;;;;;;;9.71;71.48;99098.38;5052814;28;20196;-79
2022/04/03 00:23:51;;;;;;;3.22;1.30;;;;;;;9.35;71.34;99067.22;5039458;28;20212;-79
2022/04/03 00:26:20;;;;;;;1.95;1.58;;;;;;;9.50;69.82;99079.34;5032794;28;20208;-80
2022/04/03 00:28:46;;;;;;;1.73;1.50;;;;;;;9.71;68.97;99105.28;5033008;28;20207;-79
2022/04/03 00:31:13;;;;;;;1.90;1.65;;;;;;;9.56;69.42;99100.06;5032672;28;20208;-79
2022/04/03 00:33:40;;;;;;;1.65;1.55;;;;;;;9.59;69.83;99113.03;5033029;28;20223;-79
2022/04/03 00:36:07;;;;;;;4.07;1.90;;;;;;;9.53;69.46;99113.84;5038786;28;20737;-79
2022/04/03 00:38:34;;;;;;;1.33;1.27;;;;;;;9.28;71.12;99102.53;5037077;28;20219;-79
2022/04/03 00:41:02;;;;;;;3.90;2.30;;;;;;;9.35;72.61;99112.06;5033171;28;20207;-79
2022/04/03 00:43:31;;;;;;;2.10;1.60;;;;;;;9.15;73.57;99090.41;5036318;28;20200;-79
2022/04/03 00:46:00;;;;;;;1.45;1.38;;;;;;;9.30;74.60;99105.16;5052199;28;20231;-79
2022/04/03 00:48:27;;;;;;;2.50;1.60;;;;;;;9.22;75.09;99102.53;5043003;28;20258;-79
2022/04/03 00:50:54;;;;;;;1.85;1.75;;;;;;;9.28;74.90;99101.66;5040135;28;20215;-79
2022/04/03 00:53:21;;;;;;;1.88;1.77;;;;;;;9.12;75.27;99099.88;5050198;28;20203;-79
2022/04/03 00:55:47;;;;;;;2.22;1.42;;;;;;;8.94;76.46;99075.69;5048816;28;20241;-79
2022/04/03 00:58:14;;;;;;;1.67;1.58;;;;;;;9.10;76.85;99081.75;5034506;28;20220;-79
2022/04/03 01:00:43;;;;;;;2.60;1.85;;;;;;;8.86;77.13;99060.97;5044373;28;20226;-79
2022/04/03 01:03:09;;;;;;;2.25;1.60;;;;;;;8.71;77.39;99056.56;5032120;28;20684;-79
2022/04/03 01:05:37;;;;;;;1.70;1.70;;;;;;;8.99;77.53;99104.09;5049681;28;20240;-79
2022/04/03 01:08:05;;;;;;;1.35;1.25;;;;;;;9.11;76.62;99096.44;5051137;28;20204;-79
2022/04/03 01:10:31;;;;;;;2.38;1.58;;;;;;;9.04;76.70;99086.91;5060738;28;20199;-79
2022/04/03 01:12:58;;;;;;;1.83;1.73;;;;;;;8.91;77.01;99059.28;5047967;28;20207;-78
2022/04/03 01:15:25;;;;;;;1.67;1.58;;;;;;;9.04;77.95;99080.88;5057694;28;20225;-78
2022/04/03 01:17:53;;;;;;;1.70;1.70;;;;;;;8.88;78.06;99085.94;5044832;28;20223;-79
2022/04/03 01:20:20;;;;;;;3.25;1.58;;;;;;;8.84;77.08;99066.16;5052704;28;20219;-79
2022/04/03 01:22:47;;;;;;;4.38;1.67;;;;;;;9.14;76.23;99093.84;5052780;28;20257;-79
2022/04/03 01:25:15;;;;;;;3.38;2.08;;;;;;;8.96;77.14;99098.94;5052482;28;20203;-78
2022/04/03 01:27:42;;;;;;;1.50;1.40;;;;;;;9.13;75.66;99097.28;5050774;28;20191;-79
2022/04/03 01:30:10;;;;;;;1.52;1.42;;;;;;;8.79;77.05;99090.22;5038424;28;20203;-79
2022/04/03 01:32:37;;;;;;;1.65;1.30;;;;;;;9.00;77.75;99111.03;5033676;28;21710;-79
2022/04/03 01:35:05;;;;;;;1.83;1.58;;;;;;;9.02;77.53;99113.63;5051026;28;20207;-79
2022/04/03 01:37:32;;;;;;;1.48;1.48;;;;;;;8.94;76.73;99111.00;5048677;28;20199;-79
2022/04/03 01:39:59;;;;;;;1.10;1.10;;;;;;;9.09;76.90;99113.66;5048369;28;20249;-79
2022/04/03 01:42:27;;;;;;;2.08;1.95;;;;;;;8.95;77.82;99112.72;5046019;28;20278;-79
2022/04/03 01:44:54;;;;;;;1.75;1.38;;;;;;;8.95;77.62;99107.56;5031552;28;20755;-79
2022/04/03 01:47:21;;;;;;;2.08;1.98;;;;;;;8.88;78.78;99100.63;5044657;28;20207;-79
2022/04/03 01:49:47;;;;;;;1.75;1.65;;;;;;;8.77;78.98;99091.94;5040184;28;20642;-79
2022/04/03 01:52:14;;;;;;;1.70;1.60;;;;;;;8.89;76.77;99094.56;5051609;28;20686;-80
2022/04/03 01:54:41;;;;;;;2.33;1.90;;;;;;;8.85;77.56;99096.28;5043318;28;20188;-78
2022/04/03 01:57:08;;;;;;;4.40;2.00;;;;;;;8.78;76.71;99097.09;5032105;28;20204;-78
2022/04/03 01:59:36;;;;;;;1.67;1.30;;;;;;;8.78;76.31;99078.13;5040765;28;20223;-78
2022/04/03 02:02:03;;;;;;;1.88;1.77;;;;;;;8.84;75.25;99088.53;5041899;28;20204;-78
2022/04/03 02:04:30;;;;;;;2.30;1.73;;;;;;;8.87;74.60;99101.47;5031690;28;20282;-79
2022/04/03 02:06:57;;;;;;;21.88;1.92;;;;;;;8.65;75.32;99078.94;5031472;28;20192;-79
2022/04/03 02:09:24;;;;;;;3.05;1.92;;;;;;;8.80;74.56;99100.56;5045371;28;20196;-79
2022/04/03 02:11:51;;;;;;;1.70;1.60;;;;;;;8.71;74.41;99066.91;5030807;28;20208;-79
2022/04/03 02:14:24;;;;;;;5.57;2.20;;;;;;;8.71;73.68;99046.25;5032362;28;20227;-78
2022/04/03 02:16:54;;;;;;;2.00;1.80;;;;;;;8.98;74.43;99081.72;5030817;28;21075;-78
2022/04/03 02:19:21;;;;;;;3.50;1.67;;;;;;;8.90;75.32;99078.22;4995735;28;20212;-78
2022/04/03 02:21:48;;;;;;;1.83;1.70;;;;;;;8.90;75.24;99073.06;5030960;28;20207;-78
2022/04/03 02:24:15;;;;;;;3.50;2.90;;;;;;;8.68;74.41;99047.94;5048352;28;20204;-78
2022/04/03 02:26:42;;;;;;;3.55;2.58;;;;;;;8.80;74.25;99086.78;5031668;28;20291;-77
2022/04/03 02:32:49;;;;;;;2.28;1.77;;;;;;;8.69;76.09;99091.03;5024239;28;20227;-78
2022/04/03 02:35:17;;;;;;;2.83;2.03;;;;;;;8.74;77.66;99086.75;5035157;28;20200;-79
2022/04/03 02:37:44;;;;;;;1.75;1.50;;;;;;;8.45;77.30;99038.31;5043293;28;20719;-79
2022/04/03 02:40:13;;;;;;;2.33;2.13;;;;;;;8.36;77.84;99053.78;5054532;28;20207;-79
2022/04/03 02:42:40;;;;;;;2.13;1.98;;;;;;;8.29;78.99;99059.75;5047283;28;20231;-78
2022/04/03 02:45:09;;;;;;;4.18;2.35;;;;;;;8.58;79.20;99087.50;5042437;28;20204;-79
2022/04/03 02:55:04;;;;;;;4.13;2.10;;;;;;;8.51;82.26;99077.97;5046616;28;20237;-79
2022/04/03 02:57:33;;;;;;;2.97;2.25;;;;;;;8.32;82.17;99079.56;5031644;28;20200;-79
2022/04/03 03:00:00;;;;;;;2.42;2.22;;;;;;;8.24;82.61;99089.78;4999505;28;20244;-79
2022/04/03 03:02:26;;;;;;;2.25;2.10;;;;;;;8.36;82.51;99089.06;5048508;28;20660;-79
2022/04/03 03:04:53;;;;;;;2.17;2.05;;;;;;;8.42;82.76;99108.03;5053982;28;20227;-79
2022/04/03 03:07:21;;;;;;;3.40;2.13;;;;;;;8.43;82.85;99096.88;5037117;28;20200;-79
2022/04/03 03:09:48;;;;;;;2.55;2.33;;;;;;;8.38;82.34;99101.13;5051099;28;20204;-78
2022/04/03 03:12:14;;;;;;;3.08;2.28;;;;;;;8.13;84.09;99086.28;5043469;28;20265;-79
2022/04/03 03:14:43;;;;;;;5.70;2.65;;;;;;;8.04;83.67;99039.72;5038951;28;20559;-79
2022/04/03 03:17:09;;;;;;;2.92;2.72;;;;;;;8.29;83.98;99095.91;5045002;28;20679;-79
2022/04/03 03:19:36;;;;;;;2.55;2.13;;;;;;;8.31;84.41;99091.59;5052917;28;20637;-79
2022/04/03 03:22:03;;;;;;;2.50;2.30;;;;;;;8.46;83.86;99090.84;5053641;28;20199;-78
2022/04/03 03:24:30;;;;;;;3.58;2.33;;;;;;;7.54;85.84;98989.38;5053575;28;20618;-79
2022/04/03 03:26:57;;;;;;;3.50;2.65;;;;;;;8.35;84.27;99095.94;5041345;28;20592;-78
2022/04/03 03:29:24;;;;;;;3.60;2.58;;;;;;;8.19;84.99;99070.81;5042948;28;20227;-79
2022/04/03 03:31:53;;;;;;;3.00;2.67;;;;;;;8.33;86.27;99105.41;5045313;28;20211;-79
2022/04/03 03:34:19;;;;;;;2.90;2.70;;;;;;;8.21;85.86;99097.50;5046563;28;20193;-79
2022/04/03 03:36:46;;;;;;;2.83;2.63;;;;;;;8.26;85.32;99097.56;5039999;28;20222;-79
2022/04/03 03:39:13;;;;;;;3.22;2.92;;;;;;;8.30;85.60;99101.94;5027378;28;20635;-78
2022/04/03 03:41:40;;;;;;;3.25;2.58;;;;;;;8.38;85.57;99113.19;5037402;28;20284;-79
2022/04/03 03:44:10;;;;;;;11.82;4.93;;;;;;;8.30;85.13;99118.28;5053049;28;20203;-78
2022/04/03 03:46:37;;;;;;;14.00;7.35;;;;;;;8.49;84.62;99121.88;5050971;28;20192;-79
2022/04/03 03:49:06;;;;;;;19.75;7.68;;;;;;;8.61;85.25;99121.97;5049820;28;20196;-78
2022/04/03 03:51:33;;;;;;;17.30;8.27;;;;;;;8.62;83.89;99123.72;5018370;28;20199;-78
2022/04/03 03:54:00;;;;;;;12.13;5.53;;;;;;;8.66;83.40;99117.72;5048872;28;20656;-78
2022/04/03 03:56:27;;;;;;;19.05;9.70;;;;;;;8.65;83.48;99117.69;5052160;28;20196;-78
2022/04/03 03:58:53;;;;;;;6.93;6.07;;;;;;;8.62;83.86;99125.41;5047648;28;20571;-78
2022/04/03 04:01:21;;;;;;;13.65;8.98;;;;;;;8.58;82.82;99128.84;5050908;28;20713;-79
2022/04/03 04:03:48;;;;;;;10.10;7.53;;;;;;;8.46;83.05;99132.19;5052881;28;20210;-79
2022/04/03 04:06:16;;;;;;;7.20;6.07;;;;;;;8.62;82.13;99122.84;5033687;28;20302;-78
2022/04/03 04:08:43;;;;;;;4.93;4.28;;;;;;;8.52;80.53;99100.38;5008080;28;20193;-79
2022/04/03 04:11:10;;;;;;;4.20;3.67;;;;;;;8.61;80.16;99108.19;5033884;28;20265;-79
2022/04/03 04:13:37;;;;;;;9.35;5.50;;;;;;;8.65;79.69;99113.38;5033159;28;20201;-79
2022/04/03 04:16:05;;;;;;;7.13;4.45;;;;;;;8.51;79.66;99091.75;5033870;28;20192;-78
2022/04/03 04:18:31;;;;;;;6.05;5.05;;;;;;;8.67;78.26;99116.00;5032490;28;20568;-78
2022/04/03 04:20:58;;;;;;;4.47;3.53;;;;;;;8.73;77.75;99116.91;5036570;28;20714;-78
2022/04/03 04:23:27;;;;;;;6.25;3.60;;;;;;;8.80;77.71;99125.56;5017925;28;20199;-78
2022/04/03 04:25:53;;;;;;;7.22;4.28;;;;;;;8.71;78.12;99120.31;5049809;28;20278;-78
2022/04/03 04:28:20;;;;;;;10.75;5.43;;;;;;;8.72;76.26;99143.59;4994192;28;20267;-79
2022/04/03 04:30:47;;;;;;;20.08;10.90;;;;;;;8.70;77.07;99139.28;5043867;28;20265;-78
2022/04/03 04:33:14;;;;;;;24.90;13.88;;;;;;;8.66;77.77;99135.81;5032764;28;20208;-78
2022/04/03 04:35:40;;;;;;;7.47;6.03;;;;;;;8.88;77.35;99148.00;5042850;28;20192;-78
2022/04/03 04:38:07;;;;;;;9.70;6.15;;;;;;;8.98;76.97;99153.22;5048950;28;20243;-78
2022/04/03 04:40:35;;;;;;;6.78;4.80;;;;;;;8.75;77.67;99135.84;5052546;28;20314;-78
2022/04/03 04:43:02;;;;;;;6.30;5.60;;;;;;;8.94;77.06;99153.22;5051503;28;20210;-79
2022/04/03 04:45:29;;;;;;;4.93;4.43;;;;;;;8.82;77.56;99160.00;5042687;28;20207;-78
2022/04/03 04:47:59;;;;;;;5.10;4.45;;;;;;;8.82;78.11;99163.47;5044722;28;20607;-78
2022/04/03 04:50:27;;;;;;;6.55;3.50;;;;;;;8.94;78.02;99178.19;5031775;28;20735;-78
2022/04/03 04:52:54;;;;;;;2.80;2.60;;;;;;;9.00;78.74;99183.41;5032346;28;20204;-79
2022/04/03 04:55:21;;;;;;;7.80;4.63;;;;;;;8.94;80.54;99179.06;5049191;28;20207;-79
2022/04/03 04:57:52;;;;;;;4.78;2.97;;;;;;;8.82;79.74;99127.28;5058166;28;20204;-78
2022/04/03 05:00:20;;;;;;;4.50;3.63;;;;;;;9.11;79.47;99186.94;5043303;28;20259;-78
2022/04/03 05:02:47;;;;;;;6.18;3.03;;;;;;;9.39;83.60;99194.00;5036080;28;20200;-79
2022/04/03 05:05:14;;;;;;;4.30;3.10;;;;;;;9.31;80.58;99182.72;5032620;28;20592;-79
2022/04/03 05:07:41;;;;;;;3.47;2.97;;;;;;;9.21;80.41;99191.28;5032328;28;20204;-78
2022/04/03 05:10:09;;;;;;;4.30;2.75;;;;;;;9.27;81.14;99188.78;5031797;28;20215;-79
2022/04/03 05:12:37;;;;;;;5.50;3.15;;;;;;;8.97;79.92;99142.03;5036214;28;20637;-79
2022/04/03 05:15:08;;;;;;;5.10;3.50;;;;;;;9.34;80.56;99168.97;5045056;28;20211;-80
2022/04/03 05:17:35;;;;;;;14.85;6.72;;;;;;;9.35;78.73;99160.31;4965563;28;20204;-79
2022/04/03 05:20:02;;;;;;;34.45;17.13;;;;;;;9.58;77.00;99196.66;5032185;28;20219;-78
2022/04/03 05:22:30;;;;;;;14.55;9.02;;;;;;;9.63;76.75;99197.56;5031786;28;20200;-80
2022/04/03 05:24:57;;;;;;;8.95;5.80;;;;;;;9.57;77.25;99202.69;5031595;28;20208;-79
2022/04/03 05:27:24;;;;;;;8.25;6.82;;;;;;;9.50;77.91;99190.59;5031526;28;20585;-79
2022/04/03 05:29:50;;;;;;;12.05;6.88;;;;;;;9.61;82.21;99194.09;5001600;28;20225;-81
2022/04/03 05:32:27;;;;;;;3.03;2.83;;;;;;;9.45;77.54;99183.66;5051152;28;20609;-78
2022/04/03 05:34:54;;;;;;;5.72;3.65;;;;;;;9.46;78.31;99195.75;5045899;28;20196;-79
2022/04/03 05:37:21;;;;;;;3.78;3.40;;;;;;;9.36;79.64;99183.63;4997397;28;20211;-79
2022/04/03 05:39:49;;;;;;;5.55;4.72;;;;;;;9.55;80.16;99179.41;5050312;28;20245;-79
2022/04/03 05:42:16;;;;;;;3.17;2.88;;;;;;;9.76;80.15;99207.97;5051097;28;20203;-79
2022/04/03 05:44:43;;;;;;;3.08;2.88;;;;;;;9.85;80.07;99205.41;5047250;28;20200;-80
2022/04/03 05:47:09;;;;;;;4.53;3.58;;;;;;;9.97;79.97;99217.53;5031393;28;20211;-80
2022/04/03 05:49:38;;;;;;;2.88;2.58;;;;;;;9.87;81.34;99208.00;5031404;28;20196;-77
2022/04/03 05:52:05;;;;;;;6.63;4.35;;;;;;;9.90;83.16;99192.50;5030614;28;20223;-77
2022/04/03 05:54:32;;;;;;;4.05;3.70;;;;;;;10.02;82.73;99213.25;5041688;28;20203;-77
2022/04/03 05:56:59;;;;;;;6.13;3.30;;;;;;;10.24;82.45;99233.19;5050732;28;20202;-80
2022/04/03 05:59:26;;;;;;;6.05;3.35;;;;;;;10.03;83.78;99225.31;5043771;28;20216;-78
2022/04/03 06:01:53;;;;;;;10.68;5.20;;;;;;;9.98;85.19;99236.53;5052330;28;20568;-79
2022/04/03 06:04:19;;;;;;;4.95;3.83;;;;;;;9.55;84.37;99112.16;5047395;28;20196;-79
2022/04/03 06:06:47;;;;;;;2.80;2.60;;;;;;;10.67;86.22;99246.22;5045041;28;20199;-79
2022/04/03 06:09:14;;;;;;;4.38;2.25;;;;;;;10.58;85.72;99243.63;5054598;28;20259;-79
2022/04/03 06:11:41;;;;;;;3.97;2.85;;;;;;;10.47;84.63;99211.66;5035742;28;20211;-78
2022/04/03 06:14:08;;;;;;;2.75;2.55;;;;;;;10.30;84.56;99233.22;5051157;28;20272;-78
2022/04/03 06:16:35;;;;;;;2.88;2.70;;;;;;;10.07;84.58;99202.88;5054884;28;20207;-79
2022/04/03 06:19:01;;;;;;;1.67;1.60;;;;;;;10.12;84.48;99245.22;5047287;28;20675;-77
2022/04/03 06:21:28;;;;;;;2.78;2.42;;;;;;;9.98;84.23;99255.53;5036132;28;20258;-75
2022/04/03 06:23:56;;;;;;;5.60;2.97;;;;;;;9.91;84.48;99272.78;5034430;28;20258;-77
2022/04/03 06:26:23;;;;;;;3.15;2.83;;;;;;;9.28;85.32;99172.38;5041486;28;20195;-76
2022/04/03 06:28:50;;;;;;;3.67;3.33;;;;;;;9.87;87.54;99271.03;5038691;28;20206;-81
2022/04/03 06:31:17;;;;;;;8.23;3.72;;;;;;;9.80;88.01;99274.44;5042632;28;20270;-81
2022/04/03 06:33:43;;;;;;;4.18;3.33;;;;;;;9.53;89.30;99268.22;5002133;28;20673;-82
2022/04/03 06:36:10;;;;;;;3.55;3.25;;;;;;;9.44;90.63;99285.44;5038659;28;20227;-82
2022/04/03 06:38:37;;;;;;;3.72;3.03;;;;;;;9.48;92.16;99269.94;5054445;28;20191;-81
2022/04/03 06:41:07;;;;;;;5.25;3.47;;;;;;;9.68;93.40;99273.50;5039447;28;20223;-82
2022/04/03 06:43:34;;;;;;;7.35;4.18;;;;;;;9.67;93.27;99285.56;5035478;28;20303;-80
2022/04/03 06:46:01;;;;;;;5.43;4.03;;;;;;;9.65;94.53;99283.84;5035201;28;20239;-80
2022/04/03 06:48:29;;;;;;;14.13;5.75;;;;;;;9.55;96.82;99259.63;5035701;28;20207;-81
2022/04/03 06:50:56;;;;;;;4.47;4.05;;;;;;;9.91;97.13;99282.25;5035529;28;20232;-79
2022/04/03 06:53:23;;;;;;;6.47;5.22;;;;;;;9.86;93.99;99255.47;5000540;28;20648;-82
2022/04/03 06:55:49;;;;;;;6.15;4.57;;;;;;;10.12;93.40;99300.47;5035133;28;20215;-78
2022/04/03 06:58:17;;;;;;;4.22;3.40;;;;;;;10.19;93.46;99291.91;5036360;28;20204;-79
2022/04/03 07:00:44;;;;;;;4.65;3.40;;;;;;;10.06;94.43;99284.06;5035773;28;20692;-79
2022/04/03 07:03:11;;;;;;;5.13;4.68;;;;;;;10.05;93.44;99296.13;5035690;28;20219;-81
2022/04/03 07:05:38;;;;;;;12.02;4.90;;;;;;;10.20;93.32;99296.19;5036538;28;20232;-80
2022/04/03 07:08:06;;;;;;;6.18;4.53;;;;;;;10.21;93.01;99266.84;5035606;28;20211;-80
2022/04/03 07:10:33;;;;;;;4.25;3.78;;;;;;;10.49;90.99;99261.78;5035151;28;20203;-78
2022/04/03 07:12:59;;;;;;;6.65;3.03;;;;;;;10.68;87.74;99300.69;5034392;28;20766;-79
2022/04/03 07:15:28;;;;;;;5.28;3.70;;;;;;;10.53;88.30;99316.19;5033959;28;20203;-78
2022/04/03 07:17:54;;;;;;;3.58;2.65;;;;;;;10.36;87.33;99321.31;5034569;28;20738;-80
2022/04/03 07:20:21;;;;;;;4.28;3.33;;;;;;;10.10;87.97;99299.59;5035038;28;20227;-79
2022/04/03 07:22:49;;;;;;;3.10;2.90;;;;;;;10.32;85.69;99336.84;5033916;28;20207;-79
2022/04/03 07:25:16;;;;;;;4.18;3.72;;;;;;;10.38;85.77;99337.72;5041260;28;20200;-76
2022/04/03 07:27:43;;;;;;;5.28;3.83;;;;;;;10.27;87.12;99343.75;5040504;28;20203;-79
2022/04/03 07:30:12;;;;;;;3.85;3.42;;;;;;;10.36;85.78;99318.72;5051229;28;20198;-79
2022/04/03 07:32:40;;;;;;;6.28;3.70;;;;;;;10.80;84.97;99349.97;5044220;28;20593;-80
2022/04/03 07:35:08;;;;;;;7.07;3.03;;;;;;;10.93;84.79;99354.31;5031116;28;20204;-81
2022/04/03 07:37:35;;;;;;;3.05;2.85;;;;;;;10.74;85.98;99347.34;5013313;28;20204;-80
2022/04/03 07:40:03;;;;;;;3.67;3.38;;;;;;;10.82;87.63;99349.97;5013074;28;20232;-80
2022/04/03 07:42:30;;;;;;;2.80;2.60;;;;;;;11.13;87.11;99345.69;5012683;28;20232;-81
2022/04/03 07:44:57;;;;;;;3.63;3.10;;;;;;;10.73;86.18;99309.34;4978435;28;20205;-78
2022/04/03 07:47:25;;;;;;;4.82;4.00;;;;;;;11.06;87.49;99360.38;5030030;28;20188;-80
2022/04/03 07:49:53;;;;;;;6.40;3.80;;;;;;;11.25;86.96;99363.84;5051432;28;20329;-78
2022/04/03 07:52:20;;;;;;;5.03;4.57;;;;;;;11.31;86.72;99369.03;5048490;28;20196;-80
2022/04/03 07:54:46;;;;;;;5.95;4.25;;;;;;;11.68;84.81;99386.34;5044039;28;20738;-79
2022/04/03 07:57:13;;;;;;;4.53;3.75;;;;;;;11.62;83.53;99375.13;5033760;28;20200;-77
2022/04/03 07:59:40;;;;;;;4.25;3.72;;;;;;;11.84;82.87;99369.91;5032696;28;20699;-79
2022/04/03 08:02:07;;;;;;;6.15;4.60;;;;;;;11.74;82.38;99390.69;5033471;28;20204;-78
2022/04/03 08:04:34;;;;;;;5.90;4.80;;;;;;;11.87;83.44;99385.50;5033234;28;20232;-79
2022/04/03 08:07:02;;;;;;;8.38;5.38;;;;;;;11.78;83.14;99382.03;5039056;28;20570;-78
2022/04/03 08:09:29;;;;;;;10.27;6.75;;;;;;;11.79;85.86;99396.75;5042595;28;20200;-79
2022/04/03 08:11:56;;;;;;;6.88;4.80;;;;;;;11.95;80.86;99380.28;5039175;28;20226;-77
2022/04/03 08:14:23;;;;;;;7.28;4.82;;;;;;;11.82;77.33;99382.03;5033510;28;20351;-78
2022/04/03 08:16:50;;;;;;;11.10;5.03;;;;;;;11.19;79.23;99397.59;5041263;28;20235;-79
2022/04/03 08:19:16;;;;;;;8.80;5.57;;;;;;;10.81;80.63;99380.19;5027654;28;20201;-79
2022/04/03 08:21:43;;;;;;;9.15;5.53;;;;;;;11.03;86.07;99388.91;4983728;28;20618;-77
2022/04/03 08:24:11;;;;;;;7.65;4.05;;;;;;;11.23;83.42;99410.56;5033980;28;20188;-78
2022/04/03 08:26:38;;;;;;;10.93;5.18;;;;;;;11.56;83.99;99398.50;5032922;28;20192;-78
2022/04/03 08:29:06;;;;;;;5.90;4.72;;;;;;;11.55;81.63;99391.56;5043151;28;20199;-78
2022/04/03 08:31:33;;;;;;;6.35;4.60;;;;;;;11.44;81.32;99396.75;5016530;28;20195;-76
2022/04/03 08:34:00;;;;;;;6.63;4.93;;;;;;;11.28;81.18;99408.84;5029003;28;20735;-79
2022/04/03 08:36:29;;;;;;;5.50;5.00;;;;;;;11.38;82.15;99401.91;5037225;28;20207;-78
2022/04/03 08:38:56;;;;;;;6.38;4.85;;;;;;;11.55;80.21;99407.13;5033892;28;20616;-80
2022/04/03 08:41:24;;;;;;;17.45;5.85;;;;;;;11.41;81.89;99397.59;5034576;28;20227;-78
2022/04/03 08:43:51;;;;;;;8.00;5.55;;;;;;;11.19;81.95;99379.44;5037857;28;20211;-79
2022/04/03 08:46:18;;;;;;;9.75;7.32;;;;;;;11.59;82.36;99416.66;5052397;28;20676;-78
2022/04/03 08:48:46;;;;;;;18.90;8.35;;;;;;;11.78;81.77;99431.38;5051778;28;20265;-77
2022/04/03 08:51:13;;;;;;;16.25;8.05;;;;;;;11.64;82.51;99418.38;5051783;28;20235;-77
2022/04/03 08:53:41;;;;;;;18.05;9.20;;;;;;;11.27;84.01;99390.69;5051812;28;20211;-77
2022/04/03 08:56:07;;;;;;;13.20;8.63;;;;;;;11.07;84.57;99356.91;5051376;28;20199;-79
2022/04/03 08:58:36;;;;;;;16.90;8.90;;;;;;;11.55;83.47;99430.50;5036432;28;20265;-78
2022/04/03 09:01:03;;;;;;;9.55;5.90;;;;;;;11.51;82.59;99449.53;5034818;28;20219;-79
2022/04/03 09:03:30;;;;;;;13.68;6.88;;;;;;;11.20;84.56;99436.50;5032266;28;20200;-80
2022/04/03 09:06:12;;;;;;;13.48;8.55;;;;;;;11.34;84.59;99465.09;5031647;28;20255;-79
2022/04/03 09:08:39;;;;;;;11.15;6.85;;;;;;;11.38;81.80;99446.91;5031570;28;20238;-79
2022/04/03 09:11:07;;;;;;;10.77;5.57;;;;;;;11.40;79.28;99441.72;5047227;28;20600;-76
2022/04/03 09:13:36;;;;;;;13.95;8.20;;;;;;;11.43;79.93;99424.44;5032218;28;20191;-75
2022/04/03 09:16:03;;;;;;;14.07;7.88;;;;;;;11.61;79.35;99453.84;5033019;28;20200;-75
2022/04/03 09:18:47;;;;;;;25.52;8.32;;;;;;;11.56;78.30;99445.22;5031118;28;20200;-75
2022/04/03 09:21:22;;;;;;;11.73;8.18;;;;;;;11.67;81.36;99456.44;4995927;28;20228;-77
2022/04/03 09:24:04;;;;;;;10.45;6.97;;;;;;;11.83;79.09;99445.25;5034071;28;20216;-81
2022/04/03 09:26:33;;;;;;;15.00;8.85;;;;;;;12.00;73.10;99461.69;5042553;28;20211;-79
2022/04/03 09:29:12;;;;;;;12.98;8.20;;;;;;;11.89;71.53;99458.22;5031329;28;20668;-79
2022/04/03 09:31:41;;;;;;;8.43;6.28;;;;;;;12.16;71.53;99440.03;5031751;28;20203;-79
2022/04/03 09:34:10;;;;;;;11.88;7.88;;;;;;;12.09;71.38;99469.50;5031489;28;20208;-80
2022/04/03 09:36:38;;;;;;;12.02;6.28;;;;;;;11.73;74.59;99439.19;5038061;28;20565;-79
2022/04/03 09:39:07;;;;;;;12.38;7.93;;;;;;;11.85;73.87;99456.50;5046479;28;20212;-78
2022/04/03 09:41:34;;;;;;;11.88;6.70;;;;;;;11.66;74.12;99472.91;5035506;28;20739;-80
2022/04/03 09:44:18;;;;;;;9.18;6.30;;;;;;;11.34;71.02;99445.16;5035186;28;20215;-79
2022/04/03 09:46:44;;;;;;;11.90;8.13;;;;;;;11.40;71.27;99457.31;5044904;28;20223;-80
2022/04/03 09:49:24;;;;;;;8.32;6.53;;;;;;;11.74;72.39;99490.25;5006110;28;20684;-79
2022/04/03 09:51:50;;;;;;;9.52;6.15;;;;;;;11.55;71.93;99474.63;5049768;28;20643;-79
2022/04/03 09:54:19;;;;;;;16.67;7.53;;;;;;;11.27;72.06;99461.59;5054903;28;20214;-79
2022/04/03 09:56:46;;;;;;;8.82;6.70;;;;;;;11.45;70.42;99491.91;5046718;28;20231;-79
2022/04/03 09:59:13;;;;;;;13.15;7.13;;;;;;;11.62;67.99;99497.16;5036689;28;20204;-81
2022/04/03 10:01:43;;;;;;;10.13;6.53;;;;;;;11.38;68.53;99482.38;5035717;28;20236;-82
2022/04/03 10:04:11;;;;;;;10.38;6.32;;;;;;;11.49;68.78;99495.38;5035403;28;20235;-79
2022/04/03 10:06:39;;;;;;;14.75;8.88;;;;;;;11.36;69.81;99490.19;5044507;28;20228;-79
2022/04/03 10:09:11;;;;;;;8.10;5.53;;;;;;;11.48;69.32;99501.44;5000772;28;20661;-79
2022/04/03 10:11:38;;;;;;;14.32;8.30;;;;;;;11.74;67.71;99497.16;5035488;28;20621;-79
2022/04/03 10:14:06;;;;;;;13.02;7.50;;;;;;;11.62;68.28;99498.00;5035630;28;20291;-79
2022/04/03 10:16:33;;;;;;;16.00;7.18;;;;;;;11.31;68.14;99471.13;5035232;28;20202;-81
2022/04/03 10:19:01;;;;;;;13.73;7.13;;;;;;;11.78;67.56;99493.72;5035118;28;20192;-80
2022/04/03 10:21:36;;;;;;;7.18;4.70;;;;;;;11.42;62.87;99495.38;5034097;28;20223;-80
2022/04/03 10:24:08;;;;;;;5.10;3.95;;;;;;;11.62;62.15;99512.72;5034147;28;20201;-80
2022/04/03 10:26:38;;;;;;;7.63;5.15;;;;;;;11.81;61.23;99488.53;5034174;28;20203;-79
2022/04/03 10:29:09;;;;;;;10.45;4.88;;;;;;;12.19;60.26;99486.81;5034589;28;20204;-80
2022/04/03 10:31:37;;;;;;;6.20;4.45;;;;;;;12.40;59.60;99499.75;5034175;28;20711;-79
2022/04/03 10:34:06;;;;;;;6.38;4.15;;;;;;;12.48;59.37;99509.28;5033912;28;20254;-79
2022/04/03 10:36:37;;;;;;;11.00;4.80;;;;;;;11.94;59.59;99438.31;5034248;28;20204;-79
2022/04/03 10:39:06;;;;;;;9.80;4.68;;;;;;;12.38;59.30;99504.06;5034261;28;20684;-79
2022/04/03 10:41:35;;;;;;;10.68;4.97;;;;;;;12.68;58.97;99471.94;5033932;28;20232;-79
2022/04/03 10:44:16;;;;;;;4.65;3.47;;;;;;;12.66;56.56;99504.03;5033994;28;20204;-79
2022/04/03 10:47:15;;;;;;;7.63;4.85;;;;;;;12.60;57.78;99512.72;5033768;28;20210;-80
2022/04/03 10:49:49;;;;;;;5.03;4.25;;;;;;;12.68;57.01;99533.50;4972528;28;20588;-80
2022/04/03 10:52:25;;;;;;;5.13;4.20;;;;;;;12.74;56.33;99517.88;4972533;28;20682;-80
2022/04/03 10:54:55;;;;;;;4.88;4.38;;;;;;;12.83;56.47;99517.84;4972647;28;20202;-80
2022/04/03 10:57:35;;;;;;;9.38;4.80;;;;;;;13.12;55.91;99513.44;4972663;28;20208;-79
2022/04/03 11:00:33;;;;;;;4.40;4.00;;;;;;;12.72;57.11;99514.41;4972569;28;20229;-80
2022/04/03 11:03:35;;;;;;;4.15;3.75;;;;;;;12.57;57.67;99509.25;4972406;28;20243;-80
2022/04/03 11:06:23;;;;;;;10.98;4.00;;;;;;;12.71;57.94;99512.69;4924429;28;20241;-79
2022/04/03 11:09:12;;;;;;;4.88;4.32;;;;;;;12.72;57.43;99510.09;4972260;28;20213;-80
2022/04/03 11:11:45;;;;;;;5.40;4.57;;;;;;;12.57;57.35;99465.91;4972385;28;20209;-79
2022/04/03 11:14:13;;;;;;;5.50;3.50;;;;;;;12.49;56.55;99527.47;4972420;28;20705;-80
2022/04/03 11:17:01;;;;;;;4.10;3.75;;;;;;;12.68;56.34;99523.09;4972444;28;20206;-79
2022/04/03 11:19:36;;;;;;;4.32;3.75;;;;;;;12.80;55.78;99525.69;4914833;29;20268;-80
2022/04/03 11:22:06;;;;;;;8.38;3.83;;;;;;;12.54;55.82;99493.66;4914653;29;20227;-79
2022/04/03 11:24:37;;;;;;;6.18;4.40;;;;;;;12.54;55.08;99426.06;4914816;29;20200;-80
2022/04/03 11:27:05;;;;;;;6.88;4.78;;;;;;;12.81;53.76;99538.66;4919647;28;20293;-80
2022/04/03 11:29:32;;;;;;;10.85;2.90;;;;;;;12.66;53.69;99519.66;4972585;28;20202;-80
2022/04/03 11:31:59;;;;;;;13.05;4.22;;;;;;;12.55;54.20;99531.81;4972364;28;20305;-80
2022/04/03 11:34:29;;;;;;;16.17;4.60;;;;;;;12.68;54.61;99502.28;4972418;28;20266;-80
2022/04/03 11:36:57;;;;;;;7.38;4.72;;;;;;;12.75;54.77;99530.88;4972221;28;20225;-80
2022/04/03 11:39:31;;;;;;;11.07;4.15;;;;;;;12.63;54.50;99535.22;4972125;28;20202;-79
2022/04/03 11:41:58;;;;;;;13.38;4.18;;;;;;;12.39;54.00;99516.22;4972035;28;20818;-80
2022/04/03 11:44:25;;;;;;;3.95;3.65;;;;;;;12.47;54.55;99525.75;4972204;28;20285;-80
2022/04/03 11:46:52;;;;;;;7.07;4.45;;;;;;;12.53;54.57;99525.72;4973985;28;20226;-81
2022/04/03 11:49:21;;;;;;;6.18;3.78;;;;;;;12.43;55.09;99501.47;4979748;28;20934;-80
2022/04/03 11:51:53;;;;;;;8.90;4.15;;;;;;;12.51;54.99;99519.66;4986092;28;20678;-80
2022/04/03 11:54:20;;;;;;;4.38;3.97;;;;;;;12.63;55.42;99551.72;4988845;28;20202;-79